sensor_id;sensor_type;location;lat;lon;timestamp;P1;durP1;ratioP1;P2;durP2;ratioP2
54454;SDS011;40364;52.270;10.546;2023-05-18T00:02:01;7.32;;;2.60;;
54454;SDS011;40364;52.270;10.546;2023-05-18T00:04:29;6.70;;;2.50;;
54454;SDS011;40364;52.270;10.546;2023-05-18T00:06:58;9.48;;;2.65;;
54454;SDS011;40364;52.270;10.546;2023-05-18T00:09:30;6.65;;;2.72;;
54454;SDS011;40364;52.270;10.546;2023-05-18T00:11:57;11.90;;;3.22;;
54454;SDS011;40364;52.270;10.546;2023-05-18T00:14:24;5.55;;;2.92;;
54454;SDS011;40364;52.270;10.546;2023-05-18T00:16:52;8.05;;;2.60;;
54454;SDS011;40364;52.270;10.546;2023-05-18T00:19:19;7.68;;;2.65;;
54454;SDS011;40364;52.270;10.546;2023-05-18T00:21:48;7.82;;;2.67;;
54454;SDS011;40364;52.270;10.546;2023-05-18T00:24:15;11.30;;;2.70;;
54454;SDS011;40364;52.270;10.546;2023-05-18T00:26:45;9.52;;;2.80;;
54454;SDS011;40364;52.270;10.546;2023-05-18T00:29:13;8.50;;;2.63;;
54454;SDS011;40364;52.270;10.546;2023-05-18T00:31:40;7.18;;;2.40;;
54454;SDS011;40364;52.270;10.546;2023-05-18T00:34:09;7.88;;;2.83;;
54454;SDS011;40364;52.270;10.546;2023-05-18T00:36:37;10.73;;;2.70;;
54454;SDS011;40364;52.270;10.546;2023-05-18T00:39:07;9.65;;;3.00;;
54454;SDS011;40364;52.270;10.546;2023-05-18T00:41:34;6.20;;;2.92;;
54454;SDS011;40364;52.270;10.546;2023-05-18T00:44:02;6.35;;;2.38;;
54454;SDS011;40364;52.270;10.546;2023-05-18T00:46:29;8.52;;;2.45;;
54454;SDS011;40364;52.270;10.546;2023-05-18T00:48:56;6.95;;;2.38;;
54454;SDS011;40364;52.270;10.546;2023-05-18T00:51:25;8.60;;;2.63;;
54454;SDS011;40364;52.270;10.546;2023-05-18T00:53:53;9.48;;;2.65;;
54454;SDS011;40364;52.270;10.546;2023-05-18T00:56:21;7.38;;;2.25;;
54454;SDS011;40364;52.270;10.546;2023-05-18T00:58:49;7.55;;;2.92;;
54454;SDS011;40364;52.270;10.546;2023-05-18T01:01:20;12.55;;;3.10;;
54454;SDS011;40364;52.270;10.546;2023-05-18T01:03:52;6.22;;;2.67;;
54454;SDS011;40364;52.270;10.546;2023-05-18T01:06:21;5.47;;;2.83;;
54454;SDS011;40364;52.270;10.546;2023-05-18T01:08:49;4.00;;;2.05;;
54454;SDS011;40364;52.270;10.546;2023-05-18T01:11:17;6.68;;;2.60;;
54454;SDS011;40364;52.270;10.546;2023-05-18T01:13:52;8.85;;;2.70;;
54454;SDS011;40364;52.270;10.546;2023-05-18T01:16:27;6.72;;;2.92;;
54454;SDS011;40364;52.270;10.546;2023-05-18T01:18:59;8.95;;;3.13;;
54454;SDS011;40364;52.270;10.546;2023-05-18T01:21:35;10.27;;;2.53;;
54454;SDS011;40364;52.270;10.546;2023-05-18T01:24:15;14.35;;;3.00;;
54454;SDS011;40364;52.270;10.546;2023-05-18T01:26:51;8.50;;;3.13;;
54454;SDS011;40364;52.270;10.546;2023-05-18T01:29:21;9.15;;;2.70;;
54454;SDS011;40364;52.270;10.546;2023-05-18T01:31:50;7.28;;;2.60;;
54454;SDS011;40364;52.270;10.546;2023-05-18T01:34:17;6.90;;;2.55;;
54454;SDS011;40364;52.270;10.546;2023-05-18T01:36:44;10.52;;;2.42;;
54454;SDS011;40364;52.270;10.546;2023-05-18T01:39:10;8.68;;;2.90;;
54454;SDS011;40364;52.270;10.546;2023-05-18T01:41:38;9.43;;;3.15;;
54454;SDS011;40364;52.270;10.546;2023-05-18T01:44:14;11.20;;;3.60;;
54454;SDS011;40364;52.270;10.546;2023-05-18T01:46:50;10.95;;;2.65;;
54454;SDS011;40364;52.270;10.546;2023-05-18T01:49:25;9.43;;;2.90;;
54454;SDS011;40364;52.270;10.546;2023-05-18T01:51:56;5.78;;;2.42;;
54454;SDS011;40364;52.270;10.546;2023-05-18T01:54:27;7.00;;;3.10;;
54454;SDS011;40364;52.270;10.546;2023-05-18T01:56:56;7.75;;;2.55;;
54454;SDS011;40364;52.270;10.546;2023-05-18T01:59:25;5.57;;;2.85;;
54454;SDS011;40364;52.270;10.546;2023-05-18T02:01:52;5.43;;;2.38;;
54454;SDS011;40364;52.270;10.546;2023-05-18T02:04:22;6.57;;;2.20;;
54454;SDS011;40364;52.270;10.546;2023-05-18T02:06:49;8.13;;;3.10;;
54454;SDS011;40364;52.270;10.546;2023-05-18T02:09:18;7.85;;;3.03;;
54454;SDS011;40364;52.270;10.546;2023-05-18T02:11:45;5.90;;;2.63;;
54454;SDS011;40364;52.270;10.546;2023-05-18T02:14:11;12.48;;;2.45;;
54454;SDS011;40364;52.270;10.546;2023-05-18T02:16:39;8.82;;;3.22;;
54454;SDS011;40364;52.270;10.546;2023-05-18T02:19:06;5.85;;;2.60;;
54454;SDS011;40364;52.270;10.546;2023-05-18T02:21:33;8.77;;;2.60;;
54454;SDS011;40364;52.270;10.546;2023-05-18T02:24:00;8.93;;;3.10;;
54454;SDS011;40364;52.270;10.546;2023-05-18T02:26:26;10.75;;;2.55;;
54454;SDS011;40364;52.270;10.546;2023-05-18T02:28:53;6.65;;;3.05;;
54454;SDS011;40364;52.270;10.546;2023-05-18T02:31:19;9.73;;;2.53;;
54454;SDS011;40364;52.270;10.546;2023-05-18T02:33:47;4.95;;;2.28;;
54454;SDS011;40364;52.270;10.546;2023-05-18T02:36:14;8.52;;;2.95;;
54454;SDS011;40364;52.270;10.546;2023-05-18T02:38:42;9.88;;;2.67;;
54454;SDS011;40364;52.270;10.546;2023-05-18T02:41:09;7.47;;;2.85;;
54454;SDS011;40364;52.270;10.546;2023-05-18T02:43:36;9.57;;;2.90;;
54454;SDS011;40364;52.270;10.546;2023-05-18T02:46:03;10.25;;;2.67;;
54454;SDS011;40364;52.270;10.546;2023-05-18T02:48:29;7.13;;;2.60;;
54454;SDS011;40364;52.270;10.546;2023-05-18T02:50:58;8.13;;;2.80;;
54454;SDS011;40364;52.270;10.546;2023-05-18T02:53:24;8.10;;;2.53;;
54454;SDS011;40364;52.270;10.546;2023-05-18T02:55:52;5.35;;;2.45;;
54454;SDS011;40364;52.270;10.546;2023-05-18T02:58:21;11.15;;;3.15;;
54454;SDS011;40364;52.270;10.546;2023-05-18T03:00:49;5.93;;;2.63;;
54454;SDS011;40364;52.270;10.546;2023-05-18T03:03:16;5.95;;;2.80;;
54454;SDS011;40364;52.270;10.546;2023-05-18T03:05:43;7.47;;;3.20;;
54454;SDS011;40364;52.270;10.546;2023-05-18T03:08:11;7.35;;;2.88;;
54454;SDS011;40364;52.270;10.546;2023-05-18T03:10:38;7.75;;;3.05;;
54454;SDS011;40364;52.270;10.546;2023-05-18T03:13:05;6.80;;;3.03;;
54454;SDS011;40364;52.270;10.546;2023-05-18T03:15:31;5.03;;;2.70;;
54454;SDS011;40364;52.270;10.546;2023-05-18T03:17:58;12.60;;;3.15;;
54454;SDS011;40364;52.270;10.546;2023-05-18T03:20:24;9.75;;;3.08;;
54454;SDS011;40364;52.270;10.546;2023-05-18T03:22:52;8.55;;;2.80;;
54454;SDS011;40364;52.270;10.546;2023-05-18T03:25:20;7.68;;;2.50;;
54454;SDS011;40364;52.270;10.546;2023-05-18T03:27:49;11.30;;;3.13;;
54454;SDS011;40364;52.270;10.546;2023-05-18T03:30:16;7.90;;;3.70;;
54454;SDS011;40364;52.270;10.546;2023-05-18T03:32:43;10.32;;;3.70;;
54454;SDS011;40364;52.270;10.546;2023-05-18T03:35:10;8.00;;;3.53;;
54454;SDS011;40364;52.270;10.546;2023-05-18T03:37:36;13.15;;;3.45;;
54454;SDS011;40364;52.270;10.546;2023-05-18T03:40:10;7.45;;;2.92;;
54454;SDS011;40364;52.270;10.546;2023-05-18T03:42:40;9.32;;;2.80;;
54454;SDS011;40364;52.270;10.546;2023-05-18T03:45:07;10.07;;;3.03;;
54454;SDS011;40364;52.270;10.546;2023-05-18T03:47:35;9.73;;;2.85;;
54454;SDS011;40364;52.270;10.546;2023-05-18T03:50:02;8.68;;;3.00;;
54454;SDS011;40364;52.270;10.546;2023-05-18T03:52:30;10.68;;;2.83;;
54454;SDS011;40364;52.270;10.546;2023-05-18T03:54:58;13.15;;;3.30;;
54454;SDS011;40364;52.270;10.546;2023-05-18T03:57:25;7.25;;;2.60;;
54454;SDS011;40364;52.270;10.546;2023-05-18T03:59:54;7.78;;;2.92;;
54454;SDS011;40364;52.270;10.546;2023-05-18T04:02:21;6.70;;;2.67;;
54454;SDS011;40364;52.270;10.546;2023-05-18T04:04:48;12.15;;;3.00;;
54454;SDS011;40364;52.270;10.546;2023-05-18T04:07:18;9.48;;;3.30;;
54454;SDS011;40364;52.270;10.546;2023-05-18T04:09:46;6.63;;;2.90;;
54454;SDS011;40364;52.270;10.546;2023-05-18T04:12:13;9.18;;;3.53;;
54454;SDS011;40364;52.270;10.546;2023-05-18T04:14:40;6.43;;;2.70;;
54454;SDS011;40364;52.270;10.546;2023-05-18T04:17:08;8.60;;;2.75;;
54454;SDS011;40364;52.270;10.546;2023-05-18T04:19:35;8.23;;;3.08;;
54454;SDS011;40364;52.270;10.546;2023-05-18T04:22:02;4.07;;;2.42;;
54454;SDS011;40364;52.270;10.546;2023-05-18T04:24:29;4.57;;;2.47;;
54454;SDS011;40364;52.270;10.546;2023-05-18T04:26:56;10.90;;;3.30;;
54454;SDS011;40364;52.270;10.546;2023-05-18T04:29:23;9.15;;;3.03;;
54454;SDS011;40364;52.270;10.546;2023-05-18T04:31:50;7.45;;;2.67;;
54454;SDS011;40364;52.270;10.546;2023-05-18T04:34:19;8.20;;;3.20;;
54454;SDS011;40364;52.270;10.546;2023-05-18T04:36:45;5.78;;;2.90;;
54454;SDS011;40364;52.270;10.546;2023-05-18T04:39:12;9.27;;;3.55;;
54454;SDS011;40364;52.270;10.546;2023-05-18T04:41:39;7.18;;;3.17;;
54454;SDS011;40364;52.270;10.546;2023-05-18T04:44:06;9.35;;;2.97;;
54454;SDS011;40364;52.270;10.546;2023-05-18T04:46:33;10.10;;;2.80;;
54454;SDS011;40364;52.270;10.546;2023-05-18T04:49:03;6.10;;;3.50;;
54454;SDS011;40364;52.270;10.546;2023-05-18T04:51:31;14.05;;;3.60;;
54454;SDS011;40364;52.270;10.546;2023-05-18T04:53:58;6.40;;;3.08;;
54454;SDS011;40364;52.270;10.546;2023-05-18T04:56:27;9.68;;;3.25;;
54454;SDS011;40364;52.270;10.546;2023-05-18T04:58:53;5.10;;;2.88;;
54454;SDS011;40364;52.270;10.546;2023-05-18T05:01:23;8.02;;;3.17;;
54454;SDS011;40364;52.270;10.546;2023-05-18T05:03:50;6.72;;;3.40;;
54454;SDS011;40364;52.270;10.546;2023-05-18T05:06:17;7.05;;;2.95;;
54454;SDS011;40364;52.270;10.546;2023-05-18T05:08:45;9.15;;;2.97;;
54454;SDS011;40364;52.270;10.546;2023-05-18T05:11:12;8.73;;;3.42;;
54454;SDS011;40364;52.270;10.546;2023-05-18T05:13:38;10.75;;;3.63;;
54454;SDS011;40364;52.270;10.546;2023-05-18T05:16:05;8.38;;;2.78;;
54454;SDS011;40364;52.270;10.546;2023-05-18T05:18:32;5.68;;;3.00;;
54454;SDS011;40364;52.270;10.546;2023-05-18T05:20:58;8.82;;;3.90;;
54454;SDS011;40364;52.270;10.546;2023-05-18T05:23:25;9.50;;;3.53;;
54454;SDS011;40364;52.270;10.546;2023-05-18T05:25:53;9.35;;;2.97;;
54454;SDS011;40364;52.270;10.546;2023-05-18T05:28:20;7.50;;;3.70;;
54454;SDS011;40364;52.270;10.546;2023-05-18T05:30:47;6.80;;;3.10;;
54454;SDS011;40364;52.270;10.546;2023-05-18T05:33:13;11.27;;;3.63;;
54454;SDS011;40364;52.270;10.546;2023-05-18T05:35:40;18.73;;;3.65;;
54454;SDS011;40364;52.270;10.546;2023-05-18T05:38:07;11.07;;;3.08;;
54454;SDS011;40364;52.270;10.546;2023-05-18T05:40:33;7.88;;;3.35;;
54454;SDS011;40364;52.270;10.546;2023-05-18T05:43:03;6.18;;;3.00;;
54454;SDS011;40364;52.270;10.546;2023-05-18T05:45:29;9.35;;;2.97;;
54454;SDS011;40364;52.270;10.546;2023-05-18T05:47:56;7.10;;;2.72;;
54454;SDS011;40364;52.270;10.546;2023-05-18T05:50:23;10.70;;;3.00;;
54454;SDS011;40364;52.270;10.546;2023-05-18T05:52:50;9.15;;;2.92;;
54454;SDS011;40364;52.270;10.546;2023-05-18T05:55:16;7.05;;;2.42;;
54454;SDS011;40364;52.270;10.546;2023-05-18T05:57:43;7.40;;;3.17;;
54454;SDS011;40364;52.270;10.546;2023-05-18T06:00:12;12.20;;;3.05;;
54454;SDS011;40364;52.270;10.546;2023-05-18T06:02:39;11.07;;;2.75;;
54454;SDS011;40364;52.270;10.546;2023-05-18T06:05:06;13.18;;;3.58;;
54454;SDS011;40364;52.270;10.546;2023-05-18T06:07:33;9.95;;;2.95;;
54454;SDS011;40364;52.270;10.546;2023-05-18T06:10:00;6.85;;;3.65;;
54454;SDS011;40364;52.270;10.546;2023-05-18T06:12:27;9.50;;;3.30;;
54454;SDS011;40364;52.270;10.546;2023-05-18T06:14:54;5.25;;;2.97;;
54454;SDS011;40364;52.270;10.546;2023-05-18T06:17:23;7.45;;;2.50;;
54454;SDS011;40364;52.270;10.546;2023-05-18T06:19:50;8.40;;;2.53;;
54454;SDS011;40364;52.270;10.546;2023-05-18T06:22:17;3.63;;;2.10;;
54454;SDS011;40364;52.270;10.546;2023-05-18T06:24:44;5.28;;;2.25;;
54454;SDS011;40364;52.270;10.546;2023-05-18T06:27:11;4.35;;;2.65;;
54454;SDS011;40364;52.270;10.546;2023-05-18T06:29:37;7.55;;;1.98;;
54454;SDS011;40364;52.270;10.546;2023-05-18T06:32:04;9.45;;;2.60;;
54454;SDS011;40364;52.270;10.546;2023-05-18T06:34:33;5.70;;;2.50;;
54454;SDS011;40364;52.270;10.546;2023-05-18T06:37:01;7.18;;;3.08;;
54454;SDS011;40364;52.270;10.546;2023-05-18T06:39:28;8.20;;;2.58;;
54454;SDS011;40364;52.270;10.546;2023-05-18T06:41:55;7.57;;;1.98;;
54454;SDS011;40364;52.270;10.546;2023-05-18T06:44:21;7.82;;;1.80;;
54454;SDS011;40364;52.270;10.546;2023-05-18T06:46:48;20.10;;;2.15;;
54454;SDS011;40364;52.270;10.546;2023-05-18T06:49:14;5.63;;;1.75;;
54454;SDS011;40364;52.270;10.546;2023-05-18T06:51:42;9.20;;;2.35;;
54454;SDS011;40364;52.270;10.546;2023-05-18T06:54:09;5.95;;;1.80;;
54454;SDS011;40364;52.270;10.546;2023-05-18T06:56:36;7.95;;;1.50;;
54454;SDS011;40364;52.270;10.546;2023-05-18T06:59:03;9.02;;;2.20;;
54454;SDS011;40364;52.270;10.546;2023-05-18T07:01:29;8.30;;;1.80;;
54454;SDS011;40364;52.270;10.546;2023-05-18T07:03:57;9.40;;;1.92;;
54454;SDS011;40364;52.270;10.546;2023-05-18T07:06:24;5.35;;;2.00;;
54454;SDS011;40364;52.270;10.546;2023-05-18T07:08:52;9.88;;;2.17;;
54454;SDS011;40364;52.270;10.546;2023-05-18T07:11:19;7.63;;;1.73;;
54454;SDS011;40364;52.270;10.546;2023-05-18T07:13:46;9.43;;;2.05;;
54454;SDS011;40364;52.270;10.546;2023-05-18T07:16:12;12.68;;;1.60;;
54454;SDS011;40364;52.270;10.546;2023-05-18T07:18:39;5.88;;;1.77;;
54454;SDS011;40364;52.270;10.546;2023-05-18T07:21:06;4.75;;;1.88;;
54454;SDS011;40364;52.270;10.546;2023-05-18T07:23:33;5.47;;;1.50;;
54454;SDS011;40364;52.270;10.546;2023-05-18T07:26:01;7.45;;;1.70;;
54454;SDS011;40364;52.270;10.546;2023-05-18T07:28:28;6.45;;;1.88;;
54454;SDS011;40364;52.270;10.546;2023-05-18T07:30:54;4.30;;;1.63;;
54454;SDS011;40364;52.270;10.546;2023-05-18T07:33:21;7.78;;;1.33;;
54454;SDS011;40364;52.270;10.546;2023-05-18T07:35:47;5.72;;;1.40;;
54454;SDS011;40364;52.270;10.546;2023-05-18T07:38:14;6.85;;;1.60;;
54454;SDS011;40364;52.270;10.546;2023-05-18T07:40:41;6.50;;;1.60;;
54454;SDS011;40364;52.270;10.546;2023-05-18T07:43:09;7.95;;;1.73;;
54454;SDS011;40364;52.270;10.546;2023-05-18T07:45:35;10.38;;;2.13;;
54454;SDS011;40364;52.270;10.546;2023-05-18T07:48:02;4.63;;;1.35;;
54454;SDS011;40364;52.270;10.546;2023-05-18T07:50:29;7.93;;;1.48;;
54454;SDS011;40364;52.270;10.546;2023-05-18T07:52:55;8.02;;;1.55;;
54454;SDS011;40364;52.270;10.546;2023-05-18T07:55:22;11.23;;;1.90;;
54454;SDS011;40364;52.270;10.546;2023-05-18T07:57:49;4.63;;;1.23;;
54454;SDS011;40364;52.270;10.546;2023-05-18T08:00:18;5.38;;;1.70;;
54454;SDS011;40364;52.270;10.546;2023-05-18T08:02:45;7.28;;;1.40;;
54454;SDS011;40364;52.270;10.546;2023-05-18T08:05:11;5.30;;;1.40;;
54454;SDS011;40364;52.270;10.546;2023-05-18T08:07:38;8.05;;;1.50;;
54454;SDS011;40364;52.270;10.546;2023-05-18T08:10:05;8.63;;;1.70;;
54454;SDS011;40364;52.270;10.546;2023-05-18T08:12:32;6.25;;;1.70;;
54454;SDS011;40364;52.270;10.546;2023-05-18T08:14:58;3.00;;;1.33;;
54454;SDS011;40364;52.270;10.546;2023-05-18T08:17:26;10.38;;;2.33;;
54454;SDS011;40364;52.270;10.546;2023-05-18T08:19:53;5.65;;;1.90;;
54454;SDS011;40364;52.270;10.546;2023-05-18T08:22:20;4.35;;;1.38;;
54454;SDS011;40364;52.270;10.546;2023-05-18T08:24:47;5.35;;;1.40;;
54454;SDS011;40364;52.270;10.546;2023-05-18T08:27:14;5.18;;;1.85;;
54454;SDS011;40364;52.270;10.546;2023-05-18T08:29:40;7.43;;;1.35;;
54454;SDS011;40364;52.270;10.546;2023-05-18T08:32:07;8.27;;;1.30;;
54454;SDS011;40364;52.270;10.546;2023-05-18T08:34:36;5.10;;;1.30;;
54454;SDS011;40364;52.270;10.546;2023-05-18T08:37:02;3.03;;;1.20;;
54454;SDS011;40364;52.270;10.546;2023-05-18T08:39:29;6.25;;;1.23;;
54454;SDS011;40364;52.270;10.546;2023-05-18T08:42:00;7.22;;;1.50;;
54454;SDS011;40364;52.270;10.546;2023-05-18T08:44:29;4.03;;;1.35;;
54454;SDS011;40364;52.270;10.546;2023-05-18T08:47:02;4.72;;;1.33;;
54454;SDS011;40364;52.270;10.546;2023-05-18T08:49:34;8.80;;;1.35;;
54454;SDS011;40364;52.270;10.546;2023-05-18T08:52:03;5.97;;;1.20;;
54454;SDS011;40364;52.270;10.546;2023-05-18T08:54:32;3.60;;;1.60;;
54454;SDS011;40364;52.270;10.546;2023-05-18T08:57:02;4.00;;;1.48;;
54454;SDS011;40364;52.270;10.546;2023-05-18T08:59:32;8.32;;;1.35;;
54454;SDS011;40364;52.270;10.546;2023-05-18T09:02:04;7.28;;;2.30;;
54454;SDS011;40364;52.270;10.546;2023-05-18T09:04:31;3.85;;;1.08;;
54454;SDS011;40364;52.270;10.546;2023-05-18T09:07:01;7.32;;;1.48;;
54454;SDS011;40364;52.270;10.546;2023-05-18T09:09:29;6.47;;;1.58;;
54454;SDS011;40364;52.270;10.546;2023-05-18T09:11:57;8.07;;;1.58;;
54454;SDS011;40364;52.270;10.546;2023-05-18T09:14:24;5.68;;;1.33;;
54454;SDS011;40364;52.270;10.546;2023-05-18T09:16:51;9.82;;;1.20;;
54454;SDS011;40364;52.270;10.546;2023-05-18T09:19:18;7.80;;;1.70;;
54454;SDS011;40364;52.270;10.546;2023-05-18T09:21:45;4.55;;;1.10;;
54454;SDS011;40364;52.270;10.546;2023-05-18T09:24:14;3.72;;;1.27;;
54454;SDS011;40364;52.270;10.546;2023-05-18T09:26:40;5.60;;;1.83;;
54454;SDS011;40364;52.270;10.546;2023-05-18T09:29:14;5.50;;;1.95;;
54454;SDS011;40364;52.270;10.546;2023-05-18T09:31:42;8.13;;;1.77;;
54454;SDS011;40364;52.270;10.546;2023-05-18T09:34:09;9.57;;;1.85;;
54454;SDS011;40364;52.270;10.546;2023-05-18T09:36:36;8.15;;;1.80;;
54454;SDS011;40364;52.270;10.546;2023-05-18T09:39:05;6.35;;;1.60;;
54454;SDS011;40364;52.270;10.546;2023-05-18T09:41:35;4.32;;;1.17;;
54454;SDS011;40364;52.270;10.546;2023-05-18T09:44:03;6.88;;;1.63;;
54454;SDS011;40364;52.270;10.546;2023-05-18T09:46:34;8.13;;;1.50;;
54454;SDS011;40364;52.270;10.546;2023-05-18T09:49:02;3.42;;;1.13;;
54454;SDS011;40364;52.270;10.546;2023-05-18T09:51:29;7.63;;;1.63;;
54454;SDS011;40364;52.270;10.546;2023-05-18T09:53:57;4.50;;;1.50;;
54454;SDS011;40364;52.270;10.546;2023-05-18T09:56:25;6.03;;;1.70;;
54454;SDS011;40364;52.270;10.546;2023-05-18T09:58:53;4.55;;;1.30;;
54454;SDS011;40364;52.270;10.546;2023-05-18T10:01:20;5.82;;;1.60;;
54454;SDS011;40364;52.270;10.546;2023-05-18T10:03:47;3.28;;;1.20;;
54454;SDS011;40364;52.270;10.546;2023-05-18T10:06:14;11.30;;;1.85;;
54454;SDS011;40364;52.270;10.546;2023-05-18T10:08:43;4.50;;;1.40;;
54454;SDS011;40364;52.270;10.546;2023-05-18T10:11:11;5.78;;;1.45;;
54454;SDS011;40364;52.270;10.546;2023-05-18T10:13:37;7.32;;;1.55;;
54454;SDS011;40364;52.270;10.546;2023-05-18T10:16:09;4.80;;;1.20;;
54454;SDS011;40364;52.270;10.546;2023-05-18T10:18:36;5.70;;;1.40;;
54454;SDS011;40364;52.270;10.546;2023-05-18T10:21:04;7.32;;;1.35;;
54454;SDS011;40364;52.270;10.546;2023-05-18T10:23:32;5.13;;;1.30;;
54454;SDS011;40364;52.270;10.546;2023-05-18T10:26:02;4.50;;;1.23;;
54454;SDS011;40364;52.270;10.546;2023-05-18T10:28:32;5.53;;;1.58;;
54454;SDS011;40364;52.270;10.546;2023-05-18T10:31:03;4.15;;;1.25;;
54454;SDS011;40364;52.270;10.546;2023-05-18T10:33:35;7.88;;;1.52;;
54454;SDS011;40364;52.270;10.546;2023-05-18T10:36:03;7.15;;;1.45;;
54454;SDS011;40364;52.270;10.546;2023-05-18T10:38:31;5.88;;;1.20;;
54454;SDS011;40364;52.270;10.546;2023-05-18T10:40:59;3.80;;;1.42;;
54454;SDS011;40364;52.270;10.546;2023-05-18T10:43:26;5.38;;;1.50;;
54454;SDS011;40364;52.270;10.546;2023-05-18T10:45:54;7.18;;;1.55;;
54454;SDS011;40364;52.270;10.546;2023-05-18T10:48:22;4.00;;;1.02;;
54454;SDS011;40364;52.270;10.546;2023-05-18T10:50:52;6.10;;;1.55;;
54454;SDS011;40364;52.270;10.546;2023-05-18T10:53:20;3.95;;;1.15;;
54454;SDS011;40364;52.270;10.546;2023-05-18T10:55:48;2.83;;;1.58;;
54454;SDS011;40364;52.270;10.546;2023-05-18T10:58:17;6.68;;;1.35;;
54454;SDS011;40364;52.270;10.546;2023-05-18T11:00:47;4.63;;;1.15;;
54454;SDS011;40364;52.270;10.546;2023-05-18T11:03:15;5.32;;;1.30;;
54454;SDS011;40364;52.270;10.546;2023-05-18T11:05:43;6.95;;;1.33;;
54454;SDS011;40364;52.270;10.546;2023-05-18T11:08:24;8.77;;;1.58;;
54454;SDS011;40364;52.270;10.546;2023-05-18T11:10:58;8.80;;;1.40;;
54454;SDS011;40364;52.270;10.546;2023-05-18T11:13:27;7.13;;;1.27;;
54454;SDS011;40364;52.270;10.546;2023-05-18T11:16:02;3.88;;;1.10;;
54454;SDS011;40364;52.270;10.546;2023-05-18T11:18:36;5.43;;;1.40;;
54454;SDS011;40364;52.270;10.546;2023-05-18T11:24:22;6.50;;;1.10;;
54454;SDS011;40364;52.270;10.546;2023-05-18T11:26:51;6.40;;;1.30;;
54454;SDS011;40364;52.270;10.546;2023-05-18T11:29:19;4.60;;;1.42;;
54454;SDS011;40364;52.270;10.546;2023-05-18T11:31:50;9.48;;;1.30;;
54454;SDS011;40364;52.270;10.546;2023-05-18T11:37:16;5.43;;;1.30;;
54454;SDS011;40364;52.270;10.546;2023-05-18T11:40:06;3.42;;;0.90;;
54454;SDS011;40364;52.270;10.546;2023-05-18T11:42:35;6.38;;;1.55;;
54454;SDS011;40364;52.270;10.546;2023-05-18T11:45:05;8.13;;;1.73;;
54454;SDS011;40364;52.270;10.546;2023-05-18T11:47:32;6.20;;;1.45;;
54454;SDS011;40364;52.270;10.546;2023-05-18T11:50:00;8.40;;;2.50;;
54454;SDS011;40364;52.270;10.546;2023-05-18T11:52:27;4.95;;;1.48;;
54454;SDS011;40364;52.270;10.546;2023-05-18T11:54:55;5.78;;;1.23;;
54454;SDS011;40364;52.270;10.546;2023-05-18T11:57:25;6.35;;;1.30;;
54454;SDS011;40364;52.270;10.546;2023-05-18T12:00:04;6.32;;;1.13;;
54454;SDS011;40364;52.270;10.546;2023-05-18T12:02:34;7.13;;;1.45;;
54454;SDS011;40364;52.270;10.546;2023-05-18T12:05:01;4.68;;;1.38;;
54454;SDS011;40364;52.270;10.546;2023-05-18T12:07:32;10.50;;;1.20;;
54454;SDS011;40364;52.270;10.546;2023-05-18T12:10:00;4.00;;;1.00;;
54454;SDS011;40364;52.270;10.546;2023-05-18T12:12:29;3.85;;;1.10;;
54454;SDS011;40364;52.270;10.546;2023-05-18T12:14:57;7.07;;;1.45;;
54454;SDS011;40364;52.270;10.546;2023-05-18T12:17:28;5.32;;;1.33;;
54454;SDS011;40364;52.270;10.546;2023-05-18T12:20:03;6.45;;;1.42;;
54454;SDS011;40364;52.270;10.546;2023-05-18T12:22:30;2.58;;;1.20;;
54454;SDS011;40364;52.270;10.546;2023-05-18T12:24:56;3.78;;;1.40;;
54454;SDS011;40364;52.270;10.546;2023-05-18T12:27:23;3.97;;;1.40;;
54454;SDS011;40364;52.270;10.546;2023-05-18T12:29:52;4.55;;;1.10;;
54454;SDS011;40364;52.270;10.546;2023-05-18T12:32:19;6.43;;;1.35;;
54454;SDS011;40364;52.270;10.546;2023-05-18T12:34:46;6.43;;;1.95;;
54454;SDS011;40364;52.270;10.546;2023-05-18T12:37:14;7.10;;;1.48;;
54454;SDS011;40364;52.270;10.546;2023-05-18T12:39:40;5.03;;;1.00;;
54454;SDS011;40364;52.270;10.546;2023-05-18T12:42:10;5.20;;;1.08;;
54454;SDS011;40364;52.270;10.546;2023-05-18T12:44:38;4.60;;;1.05;;
54454;SDS011;40364;52.270;10.546;2023-05-18T12:47:09;2.83;;;1.10;;
54454;SDS011;40364;52.270;10.546;2023-05-18T12:49:36;6.20;;;2.13;;
54454;SDS011;40364;52.270;10.546;2023-05-18T12:52:07;5.47;;;1.55;;
54454;SDS011;40364;52.270;10.546;2023-05-18T12:54:35;4.90;;;1.10;;
54454;SDS011;40364;52.270;10.546;2023-05-18T12:57:04;3.85;;;1.20;;
54454;SDS011;40364;52.270;10.546;2023-05-18T12:59:31;3.88;;;1.40;;
54454;SDS011;40364;52.270;10.546;2023-05-18T13:01:58;5.93;;;1.35;;
54454;SDS011;40364;52.270;10.546;2023-05-18T13:04:32;6.32;;;1.92;;
54454;SDS011;40364;52.270;10.546;2023-05-18T13:07:00;7.97;;;1.25;;
54454;SDS011;40364;52.270;10.546;2023-05-18T13:09:26;9.43;;;1.50;;
54454;SDS011;40364;52.270;10.546;2023-05-18T13:11:58;6.25;;;1.33;;
54454;SDS011;40364;52.270;10.546;2023-05-18T13:14:25;6.13;;;1.58;;
54454;SDS011;40364;52.270;10.546;2023-05-18T13:16:54;6.55;;;1.25;;
54454;SDS011;40364;52.270;10.546;2023-05-18T13:19:21;5.57;;;1.42;;
54454;SDS011;40364;52.270;10.546;2023-05-18T13:21:55;7.05;;;1.27;;
54454;SDS011;40364;52.270;10.546;2023-05-18T13:24:22;5.75;;;1.10;;
54454;SDS011;40364;52.270;10.546;2023-05-18T13:26:49;3.40;;;1.58;;
54454;SDS011;40364;52.270;10.546;2023-05-18T13:29:15;3.22;;;1.30;;
54454;SDS011;40364;52.270;10.546;2023-05-18T13:31:43;5.43;;;1.13;;
54454;SDS011;40364;52.270;10.546;2023-05-18T13:34:09;5.20;;;1.15;;
54454;SDS011;40364;52.270;10.546;2023-05-18T13:36:36;4.65;;;1.30;;
54454;SDS011;40364;52.270;10.546;2023-05-18T13:39:04;4.10;;;1.35;;
54454;SDS011;40364;52.270;10.546;2023-05-18T13:41:31;4.88;;;1.50;;
54454;SDS011;40364;52.270;10.546;2023-05-18T13:43:59;3.97;;;1.23;;
54454;SDS011;40364;52.270;10.546;2023-05-18T13:46:25;2.58;;;1.10;;
54454;SDS011;40364;52.270;10.546;2023-05-18T13:48:52;6.50;;;1.20;;
54454;SDS011;40364;52.270;10.546;2023-05-18T13:51:19;5.45;;;1.40;;
54454;SDS011;40364;52.270;10.546;2023-05-18T13:53:45;4.35;;;1.58;;
54454;SDS011;40364;52.270;10.546;2023-05-18T13:56:13;4.43;;;1.25;;
54454;SDS011;40364;52.270;10.546;2023-05-18T13:58:40;2.50;;;1.00;;
54454;SDS011;40364;52.270;10.546;2023-05-18T14:01:07;4.50;;;1.20;;
54454;SDS011;40364;52.270;10.546;2023-05-18T14:03:34;6.40;;;1.80;;
54454;SDS011;40364;52.270;10.546;2023-05-18T14:06:01;5.88;;;0.98;;
54454;SDS011;40364;52.270;10.546;2023-05-18T14:08:28;8.65;;;1.58;;
54454;SDS011;40364;52.270;10.546;2023-05-18T14:10:55;6.85;;;1.40;;
54454;SDS011;40364;52.270;10.546;2023-05-18T14:13:23;3.10;;;1.27;;
54454;SDS011;40364;52.270;10.546;2023-05-18T14:15:49;3.45;;;0.82;;
54454;SDS011;40364;52.270;10.546;2023-05-18T14:18:16;6.50;;;1.50;;
54454;SDS011;40364;52.270;10.546;2023-05-18T14:20:43;3.40;;;1.10;;
54454;SDS011;40364;52.270;10.546;2023-05-18T14:23:11;7.80;;;1.30;;
54454;SDS011;40364;52.270;10.546;2023-05-18T14:25:37;5.70;;;1.27;;
54454;SDS011;40364;52.270;10.546;2023-05-18T14:28:04;2.28;;;0.90;;
54454;SDS011;40364;52.270;10.546;2023-05-18T14:30:32;4.65;;;1.00;;
54454;SDS011;40364;52.270;10.546;2023-05-18T14:32:59;5.70;;;1.20;;
54454;SDS011;40364;52.270;10.546;2023-05-18T14:35:25;3.55;;;1.00;;
54454;SDS011;40364;52.270;10.546;2023-05-18T14:37:52;6.03;;;1.38;;
54454;SDS011;40364;52.270;10.546;2023-05-18T14:40:18;3.58;;;0.98;;
54454;SDS011;40364;52.270;10.546;2023-05-18T14:42:45;5.90;;;1.05;;
54454;SDS011;40364;52.270;10.546;2023-05-18T14:45:11;4.95;;;1.67;;